sensor_id;sensor_type;location;lat;lon;timestamp;temperature;humidity
48488;DHT22;34289;48.572;13.378;2023-05-20T00:01:23;12.00;99.90
48488;DHT22;34289;48.572;13.378;2023-05-20T00:20:52;11.90;99.90
48488;DHT22;34289;48.572;13.378;2023-05-20T00:28:11;11.70;99.90
48488;DHT22;34289;48.572;13.378;2023-05-20T00:50:09;11.90;99.90
48488;DHT22;34289;48.572;13.378;2023-05-20T01:07:14;11.40;99.90
48488;DHT22;34289;48.572;13.378;2023-05-20T01:19:38;11.80;99.90
48488;DHT22;34289;48.572;13.378;2023-05-20T01:22:06;12.00;99.90
48488;DHT22;34289;48.572;13.378;2023-05-20T01:26:58;12.10;99.90
48488;DHT22;34289;48.572;13.378;2023-05-20T01:31:52;12.10;99.90
48488;DHT22;34289;48.572;13.378;2023-05-20T01:46:33;12.10;99.90
48488;DHT22;34289;48.572;13.378;2023-05-20T02:03:36;11.30;99.90
48488;DHT22;34289;48.572;13.378;2023-05-20T02:06:01;11.30;99.90
48488;DHT22;34289;48.572;13.378;2023-05-20T02:08:27;11.40;99.90
48488;DHT22;34289;48.572;13.378;2023-05-20T02:30:22;10.70;99.90
48488;DHT22;34289;48.572;13.378;2023-05-20T02:37:40;11.30;99.90
48488;DHT22;34289;48.572;13.378;2023-05-20T02:40:09;11.90;99.90
48488;DHT22;34289;48.572;13.378;2023-05-20T02:47:26;12.30;99.90
48488;DHT22;34289;48.572;13.378;2023-05-20T02:54:45;11.80;99.90
48488;DHT22;34289;48.572;13.378;2023-05-20T02:59:37;11.20;99.90
48488;DHT22;34289;48.572;13.378;2023-05-20T03:02:02;11.00;99.90
48488;DHT22;34289;48.572;13.378;2023-05-20T03:06:54;10.80;99.90
48488;DHT22;34289;48.572;13.378;2023-05-20T03:09:22;10.60;99.90
48488;DHT22;34289;48.572;13.378;2023-05-20T03:26:24;10.20;99.90
48488;DHT22;34289;48.572;13.378;2023-05-20T03:28:50;10.10;99.90
48488;DHT22;34289;48.572;13.378;2023-05-20T03:38:35;9.80;99.90
48488;DHT22;34289;48.572;13.378;2023-05-20T03:48:19;9.90;99.90
48488;DHT22;34289;48.572;13.378;2023-05-20T03:53:10;9.70;99.90
48488;DHT22;34289;48.572;13.378;2023-05-20T04:00:29;10.10;99.90
48488;DHT22;34289;48.572;13.378;2023-05-20T04:07:49;10.00;99.90
48488;DHT22;34289;48.572;13.378;2023-05-20T04:10:18;10.00;99.90
48488;DHT22;34289;48.572;13.378;2023-05-20T04:12:44;9.70;99.90
48488;DHT22;34289;48.572;13.378;2023-05-20T04:15:10;10.30;99.90
48488;DHT22;34289;48.572;13.378;2023-05-20T04:22:31;10.60;99.90
48488;DHT22;34289;48.572;13.378;2023-05-20T04:29:50;11.60;99.90
48488;DHT22;34289;48.572;13.378;2023-05-20T04:32:17;12.40;99.90
48488;DHT22;34289;48.572;13.378;2023-05-20T04:37:13;14.80;99.90
48488;DHT22;34289;48.572;13.378;2023-05-20T04:39:38;15.90;99.90
48488;DHT22;34289;48.572;13.378;2023-05-20T04:42:04;17.90;99.90
48488;DHT22;34289;48.572;13.378;2023-05-20T04:44:31;19.70;99.90
48488;DHT22;34289;48.572;13.378;2023-05-20T04:51:53;23.40;99.90
48488;DHT22;34289;48.572;13.378;2023-05-20T05:01:38;24.40;99.90
48488;DHT22;34289;48.572;13.378;2023-05-20T05:04:04;25.70;99.90
48488;DHT22;34289;48.572;13.378;2023-05-20T05:06:29;26.50;99.90
48488;DHT22;34289;48.572;13.378;2023-05-20T05:13:48;26.60;99.90
48488;DHT22;34289;48.572;13.378;2023-05-20T05:16:13;27.00;99.90
48488;DHT22;34289;48.572;13.378;2023-05-20T05:18:39;25.10;99.90
48488;DHT22;34289;48.572;13.378;2023-05-20T05:21:05;22.90;99.90
48488;DHT22;34289;48.572;13.378;2023-05-20T05:23:31;20.90;99.90
48488;DHT22;34289;48.572;13.378;2023-05-20T05:25:57;20.20;99.90
48488;DHT22;34289;48.572;13.378;2023-05-20T05:28:23;20.40;99.90
48488;DHT22;34289;48.572;13.378;2023-05-20T05:35:42;21.60;99.90
48488;DHT22;34289;48.572;13.378;2023-05-20T05:40:34;24.70;99.90
48488;DHT22;34289;48.572;13.378;2023-05-20T05:43:00;24.50;99.90
48488;DHT22;34289;48.572;13.378;2023-05-20T05:45:26;26.20;99.60
48488;DHT22;34289;48.572;13.378;2023-05-20T05:47:51;27.60;98.10
48488;DHT22;34289;48.572;13.378;2023-05-20T05:50:17;28.50;95.10
48488;DHT22;34289;48.572;13.378;2023-05-20T05:52:43;27.60;94.90
48488;DHT22;34289;48.572;13.378;2023-05-20T05:55:09;26.30;95.60
48488;DHT22;34289;48.572;13.378;2023-05-20T05:57:35;25.20;96.40
48488;DHT22;34289;48.572;13.378;2023-05-20T06:00:01;24.10;97.60
48488;DHT22;34289;48.572;13.378;2023-05-20T06:02:26;24.50;98.30
48488;DHT22;34289;48.572;13.378;2023-05-20T06:04:52;24.30;98.20
48488;DHT22;34289;48.572;13.378;2023-05-20T06:07:18;24.20;98.80
48488;DHT22;34289;48.572;13.378;2023-05-20T06:09:44;24.30;98.30
48488;DHT22;34289;48.572;13.378;2023-05-20T06:12:10;23.30;99.40
48488;DHT22;34289;48.572;13.378;2023-05-20T06:14:35;22.50;99.90
48488;DHT22;34289;48.572;13.378;2023-05-20T06:17:02;21.60;99.90
48488;DHT22;34289;48.572;13.378;2023-05-20T06:19:27;20.70;99.90
48488;DHT22;34289;48.572;13.378;2023-05-20T06:21:53;20.50;99.90
48488;DHT22;34289;48.572;13.378;2023-05-20T06:24:18;20.20;99.90
48488;DHT22;34289;48.572;13.378;2023-05-20T06:26:44;20.00;99.90
48488;DHT22;34289;48.572;13.378;2023-05-20T06:29:10;19.80;99.90
48488;DHT22;34289;48.572;13.378;2023-05-20T06:31:36;19.90;99.90
48488;DHT22;34289;48.572;13.378;2023-05-20T06:34:02;20.10;99.90
48488;DHT22;34289;48.572;13.378;2023-05-20T06:36:28;20.20;99.90
48488;DHT22;34289;48.572;13.378;2023-05-20T06:38:53;20.20;99.90
48488;DHT22;34289;48.572;13.378;2023-05-20T06:41:19;20.00;99.90
48488;DHT22;34289;48.572;13.378;2023-05-20T06:43:47;19.60;99.90
48488;DHT22;34289;48.572;13.378;2023-05-20T06:46:12;19.50;99.90
48488;DHT22;34289;48.572;13.378;2023-05-20T06:48:38;19.50;99.90
48488;DHT22;34289;48.572;13.378;2023-05-20T06:51:06;19.50;99.90
48488;DHT22;34289;48.572;13.378;2023-05-20T06:53:34;19.70;99.90
48488;DHT22;34289;48.572;13.378;2023-05-20T06:55:59;19.70;99.90
48488;DHT22;34289;48.572;13.378;2023-05-20T06:58:25;19.90;99.90
48488;DHT22;34289;48.572;13.378;2023-05-20T07:00:51;19.70;99.90
48488;DHT22;34289;48.572;13.378;2023-05-20T07:03:17;19.40;99.90
48488;DHT22;34289;48.572;13.378;2023-05-20T07:05:43;19.50;99.90
48488;DHT22;34289;48.572;13.378;2023-05-20T07:08:08;19.50;99.90
48488;DHT22;34289;48.572;13.378;2023-05-20T07:10:34;19.50;99.90
48488;DHT22;34289;48.572;13.378;2023-05-20T07:12:59;19.60;99.90
48488;DHT22;34289;48.572;13.378;2023-05-20T07:15:25;19.80;99.90
48488;DHT22;34289;48.572;13.378;2023-05-20T07:17:51;20.00;99.90
48488;DHT22;34289;48.572;13.378;2023-05-20T07:20:16;19.90;99.90
48488;DHT22;34289;48.572;13.378;2023-05-20T07:22:42;19.80;99.90
48488;DHT22;34289;48.572;13.378;2023-05-20T07:25:09;19.80;99.90
48488;DHT22;34289;48.572;13.378;2023-05-20T07:27:35;19.90;99.90
48488;DHT22;34289;48.572;13.378;2023-05-20T07:30:01;19.80;99.90
48488;DHT22;34289;48.572;13.378;2023-05-20T07:32:26;19.90;99.90
48488;DHT22;34289;48.572;13.378;2023-05-20T07:34:52;19.90;99.90
48488;DHT22;34289;48.572;13.378;2023-05-20T07:37:18;20.00;99.90
48488;DHT22;34289;48.572;13.378;2023-05-20T07:39:43;19.80;99.90
48488;DHT22;34289;48.572;13.378;2023-05-20T07:42:09;19.60;99.90
48488;DHT22;34289;48.572;13.378;2023-05-20T07:44:34;19.60;99.90
48488;DHT22;34289;48.572;13.378;2023-05-20T07:47:01;19.60;99.90
48488;DHT22;34289;48.572;13.378;2023-05-20T07:49:27;19.80;99.90
48488;DHT22;34289;48.572;13.378;2023-05-20T07:51:52;19.90;99.90
48488;DHT22;34289;48.572;13.378;2023-05-20T07:54:18;19.80;99.90
48488;DHT22;34289;48.572;13.378;2023-05-20T07:56:44;19.60;99.90
48488;DHT22;34289;48.572;13.378;2023-05-20T07:59:09;19.80;99.90
48488;DHT22;34289;48.572;13.378;2023-05-20T08:01:35;19.80;99.90
48488;DHT22;34289;48.572;13.378;2023-05-20T08:04:01;20.00;99.90
48488;DHT22;34289;48.572;13.378;2023-05-20T08:06:27;20.30;99.90
48488;DHT22;34289;48.572;13.378;2023-05-20T08:08:53;20.50;99.90
48488;DHT22;34289;48.572;13.378;2023-05-20T08:11:19;20.50;99.90
48488;DHT22;34289;48.572;13.378;2023-05-20T08:13:46;20.70;99.90
48488;DHT22;34289;48.572;13.378;2023-05-20T08:16:12;21.00;99.90
48488;DHT22;34289;48.572;13.378;2023-05-20T08:18:38;21.10;99.90
48488;DHT22;34289;48.572;13.378;2023-05-20T08:21:04;21.10;99.90
48488;DHT22;34289;48.572;13.378;2023-05-20T08:23:33;21.50;99.90
48488;DHT22;34289;48.572;13.378;2023-05-20T08:25:59;21.60;99.90
48488;DHT22;34289;48.572;13.378;2023-05-20T08:28:28;21.60;99.90
48488;DHT22;34289;48.572;13.378;2023-05-20T08:30:54;21.40;99.90
48488;DHT22;34289;48.572;13.378;2023-05-20T08:33:20;20.80;99.90
48488;DHT22;34289;48.572;13.378;2023-05-20T08:35:47;20.50;99.90
48488;DHT22;34289;48.572;13.378;2023-05-20T08:38:13;20.20;99.90
48488;DHT22;34289;48.572;13.378;2023-05-20T08:40:38;20.10;99.90
48488;DHT22;34289;48.572;13.378;2023-05-20T08:43:04;20.30;99.90
48488;DHT22;34289;48.572;13.378;2023-05-20T08:45:35;20.40;99.90
48488;DHT22;34289;48.572;13.378;2023-05-20T08:48:02;21.10;99.90
48488;DHT22;34289;48.572;13.378;2023-05-20T08:50:30;20.90;99.90
48488;DHT22;34289;48.572;13.378;2023-05-20T08:52:56;20.90;99.90
48488;DHT22;34289;48.572;13.378;2023-05-20T08:55:29;21.10;99.90
48488;DHT22;34289;48.572;13.378;2023-05-20T08:57:58;21.40;99.90
48488;DHT22;34289;48.572;13.378;2023-05-20T09:00:23;21.30;99.90
48488;DHT22;34289;48.572;13.378;2023-05-20T09:02:53;21.50;99.90
48488;DHT22;34289;48.572;13.378;2023-05-20T09:05:19;21.30;99.90
48488;DHT22;34289;48.572;13.378;2023-05-20T09:07:45;21.00;99.90
48488;DHT22;34289;48.572;13.378;2023-05-20T09:10:11;20.90;99.90
48488;DHT22;34289;48.572;13.378;2023-05-20T09:12:37;21.00;99.90
48488;DHT22;34289;48.572;13.378;2023-05-20T09:15:03;21.10;99.90
48488;DHT22;34289;48.572;13.378;2023-05-20T09:17:29;21.20;99.90
48488;DHT22;34289;48.572;13.378;2023-05-20T09:19:55;21.20;99.90
48488;DHT22;34289;48.572;13.378;2023-05-20T09:22:29;21.20;99.90
48488;DHT22;34289;48.572;13.378;2023-05-20T09:24:55;21.20;99.90
48488;DHT22;34289;48.572;13.378;2023-05-20T09:27:21;21.50;99.90
48488;DHT22;34289;48.572;13.378;2023-05-20T09:29:48;21.60;99.90
48488;DHT22;34289;48.572;13.378;2023-05-20T09:32:14;21.90;99.90
48488;DHT22;34289;48.572;13.378;2023-05-20T09:34:40;22.30;99.90
48488;DHT22;34289;48.572;13.378;2023-05-20T09:37:08;22.50;99.90
48488;DHT22;34289;48.572;13.378;2023-05-20T09:39:56;22.60;99.90
48488;DHT22;34289;48.572;13.378;2023-05-20T09:42:28;22.90;99.90
48488;DHT22;34289;48.572;13.378;2023-05-20T09:44:56;23.10;99.90
48488;DHT22;34289;48.572;13.378;2023-05-20T09:47:23;23.10;99.90
48488;DHT22;34289;48.572;13.378;2023-05-20T09:49:51;23.30;99.90
48488;DHT22;34289;48.572;13.378;2023-05-20T09:52:17;22.80;99.90
48488;DHT22;34289;48.572;13.378;2023-05-20T09:54:44;22.60;99.90
48488;DHT22;34289;48.572;13.378;2023-05-20T09:57:10;22.70;99.90
48488;DHT22;34289;48.572;13.378;2023-05-20T09:59:36;22.60;99.90
48488;DHT22;34289;48.572;13.378;2023-05-20T10:02:04;22.80;99.90
48488;DHT22;34289;48.572;13.378;2023-05-20T10:04:32;22.70;99.90
48488;DHT22;34289;48.572;13.378;2023-05-20T10:21:01;22.40;99.50
48488;DHT22;34289;48.572;13.378;2023-05-20T10:23:27;22.60;98.80
48488;DHT22;34289;48.572;13.378;2023-05-20T10:25:55;22.60;98.60
48488;DHT22;34289;48.572;13.378;2023-05-20T10:28:29;22.50;99.40
48488;DHT22;34289;48.572;13.378;2023-05-20T10:30:56;22.60;99.10
48488;DHT22;34289;48.572;13.378;2023-05-20T10:33:21;23.00;99.10
48488;DHT22;34289;48.572;13.378;2023-05-20T10:35:50;23.20;99.90
48488;DHT22;34289;48.572;13.378;2023-05-20T10:38:16;23.20;97.80
48488;DHT22;34289;48.572;13.378;2023-05-20T10:40:42;23.50;99.10
48488;DHT22;34289;48.572;13.378;2023-05-20T10:43:12;23.50;97.50
48488;DHT22;34289;48.572;13.378;2023-05-20T10:45:51;23.30;98.60
48488;DHT22;34289;48.572;13.378;2023-05-20T10:48:27;23.10;97.80
48488;DHT22;34289;48.572;13.378;2023-05-20T10:51:00;23.10;97.40
48488;DHT22;34289;48.572;13.378;2023-05-20T10:53:37;22.80;99.60
48488;DHT22;34289;48.572;13.378;2023-05-20T10:56:03;23.00;97.90
48488;DHT22;34289;48.572;13.378;2023-05-20T10:58:37;23.00;98.60
48488;DHT22;34289;48.572;13.378;2023-05-20T11:01:03;22.90;99.40
48488;DHT22;34289;48.572;13.378;2023-05-20T11:03:28;23.00;99.30
48488;DHT22;34289;48.572;13.378;2023-05-20T11:05:55;23.10;99.00
48488;DHT22;34289;48.572;13.378;2023-05-20T11:08:20;23.30;99.40
48488;DHT22;34289;48.572;13.378;2023-05-20T11:10:46;23.40;98.40
48488;DHT22;34289;48.572;13.378;2023-05-20T11:13:13;23.40;98.30
48488;DHT22;34289;48.572;13.378;2023-05-20T11:15:41;23.30;99.30
48488;DHT22;34289;48.572;13.378;2023-05-20T11:18:09;23.40;98.70
48488;DHT22;34289;48.572;13.378;2023-05-20T11:20:36;23.40;99.90
48488;DHT22;34289;48.572;13.378;2023-05-20T11:23:04;23.30;99.30
48488;DHT22;34289;48.572;13.378;2023-05-20T11:25:32;23.30;98.90
48488;DHT22;34289;48.572;13.378;2023-05-20T11:27:58;23.40;99.50
48488;DHT22;34289;48.572;13.378;2023-05-20T11:30:24;23.60;98.50
48488;DHT22;34289;48.572;13.378;2023-05-20T11:32:59;23.60;99.50
48488;DHT22;34289;48.572;13.378;2023-05-20T11:35:27;23.40;99.00
48488;DHT22;34289;48.572;13.378;2023-05-20T11:38:01;23.20;99.90
48488;DHT22;34289;48.572;13.378;2023-05-20T11:40:28;23.20;99.80
48488;DHT22;34289;48.572;13.378;2023-05-20T11:42:57;23.10;99.90
48488;DHT22;34289;48.572;13.378;2023-05-20T11:45:23;23.20;99.80
48488;DHT22;34289;48.572;13.378;2023-05-20T11:48:02;23.10;99.20
48488;DHT22;34289;48.572;13.378;2023-05-20T11:50:33;23.20;98.20
48488;DHT22;34289;48.572;13.378;2023-05-20T11:53:01;23.10;98.40
48488;DHT22;34289;48.572;13.378;2023-05-20T11:55:28;23.00;97.80
48488;DHT22;34289;48.572;13.378;2023-05-20T11:57:57;23.00;97.80
48488;DHT22;34289;48.572;13.378;2023-05-20T12:00:23;22.90;97.80
48488;DHT22;34289;48.572;13.378;2023-05-20T12:02:49;22.80;97.50
48488;DHT22;34289;48.572;13.378;2023-05-20T12:05:14;22.90;98.00
48488;DHT22;34289;48.572;13.378;2023-05-20T12:07:41;22.90;99.00
48488;DHT22;34289;48.572;13.378;2023-05-20T12:10:07;22.90;97.40
48488;DHT22;34289;48.572;13.378;2023-05-20T12:12:32;22.90;98.60
48488;DHT22;34289;48.572;13.378;2023-05-20T12:14:58;23.00;99.60
48488;DHT22;34289;48.572;13.378;2023-05-20T12:17:24;23.00;98.70
48488;DHT22;34289;48.572;13.378;2023-05-20T12:19:49;23.20;99.70
48488;DHT22;34289;48.572;13.378;2023-05-20T12:22:15;23.20;98.50
48488;DHT22;34289;48.572;13.378;2023-05-20T12:24:40;23.20;97.00
48488;DHT22;34289;48.572;13.378;2023-05-20T12:27:06;23.40;98.00
48488;DHT22;34289;48.572;13.378;2023-05-20T12:29:32;23.60;96.50
48488;DHT22;34289;48.572;13.378;2023-05-20T12:31:58;23.70;98.50
48488;DHT22;34289;48.572;13.378;2023-05-20T12:34:24;23.90;98.50
48488;DHT22;34289;48.572;13.378;2023-05-20T12:36:50;24.20;99.00
48488;DHT22;34289;48.572;13.378;2023-05-20T12:39:15;24.40;97.00
48488;DHT22;34289;48.572;13.378;2023-05-20T12:41:43;24.10;97.50
48488;DHT22;34289;48.572;13.378;2023-05-20T12:44:09;24.20;98.30
48488;DHT22;34289;48.572;13.378;2023-05-20T12:46:35;24.20;98.40
48488;DHT22;34289;48.572;13.378;2023-05-20T12:49:01;24.20;97.40
48488;DHT22;34289;48.572;13.378;2023-05-20T12:51:26;24.30;97.40
48488;DHT22;34289;48.572;13.378;2023-05-20T12:53:52;24.50;98.00
48488;DHT22;34289;48.572;13.378;2023-05-20T12:56:18;24.60;97.00
48488;DHT22;34289;48.572;13.378;2023-05-20T12:58:44;24.40;97.60
48488;DHT22;34289;48.572;13.378;2023-05-20T13:01:10;24.20;96.80
48488;DHT22;34289;48.572;13.378;2023-05-20T13:03:35;24.00;96.80
48488;DHT22;34289;48.572;13.378;2023-05-20T13:06:01;24.00;97.10
48488;DHT22;34289;48.572;13.378;2023-05-20T13:08:28;23.90;97.80
48488;DHT22;34289;48.572;13.378;2023-05-20T13:10:53;23.90;96.00
48488;DHT22;34289;48.572;13.378;2023-05-20T13:13:19;24.00;97.20
48488;DHT22;34289;48.572;13.378;2023-05-20T13:15:47;24.00;95.90
48488;DHT22;34289;48.572;13.378;2023-05-20T13:18:14;24.00;97.30
48488;DHT22;34289;48.572;13.378;2023-05-20T13:20:43;24.10;97.30
48488;DHT22;34289;48.572;13.378;2023-05-20T13:23:09;24.30;97.00
48488;DHT22;34289;48.572;13.378;2023-05-20T13:25:35;24.50;97.30
48488;DHT22;34289;48.572;13.378;2023-05-20T13:28:04;24.50;97.90
48488;DHT22;34289;48.572;13.378;2023-05-20T13:30:29;24.50;96.20
48488;DHT22;34289;48.572;13.378;2023-05-20T13:32:56;24.50;98.00
48488;DHT22;34289;48.572;13.378;2023-05-20T13:35:22;24.50;97.40
48488;DHT22;34289;48.572;13.378;2023-05-20T13:37:48;24.50;96.30
48488;DHT22;34289;48.572;13.378;2023-05-20T13:40:13;24.70;97.30
48488;DHT22;34289;48.572;13.378;2023-05-20T13:42:39;24.70;96.70
48488;DHT22;34289;48.572;13.378;2023-05-20T13:45:05;24.60;97.20
48488;DHT22;34289;48.572;13.378;2023-05-20T13:47:31;24.60;96.80
48488;DHT22;34289;48.572;13.378;2023-05-20T13:49:56;24.50;97.10
48488;DHT22;34289;48.572;13.378;2023-05-20T13:52:22;24.20;96.10
48488;DHT22;34289;48.572;13.378;2023-05-20T13:54:48;24.20;96.70
48488;DHT22;34289;48.572;13.378;2023-05-20T13:57:14;24.20;95.40
48488;DHT22;34289;48.572;13.378;2023-05-20T13:59:40;24.00;95.70
48488;DHT22;34289;48.572;13.378;2023-05-20T14:02:06;24.00;95.70
48488;DHT22;34289;48.572;13.378;2023-05-20T14:04:32;23.80;95.60
48488;DHT22;34289;48.572;13.378;2023-05-20T14:07:06;23.60;95.40
48488;DHT22;34289;48.572;13.378;2023-05-20T14:09:32;23.60;97.40
48488;DHT22;34289;48.572;13.378;2023-05-20T14:11:58;23.50;96.40
48488;DHT22;34289;48.572;13.378;2023-05-20T14:14:24;23.30;97.60
48488;DHT22;34289;48.572;13.378;2023-05-20T14:16:49;23.30;96.60
48488;DHT22;34289;48.572;13.378;2023-05-20T14:19:15;23.50;97.60
48488;DHT22;34289;48.572;13.378;2023-05-20T14:21:40;23.40;96.80
48488;DHT22;34289;48.572;13.378;2023-05-20T14:24:06;23.50;97.90
48488;DHT22;34289;48.572;13.378;2023-05-20T14:26:32;23.80;98.30
48488;DHT22;34289;48.572;13.378;2023-05-20T14:28:58;24.10;99.00
48488;DHT22;34289;48.572;13.378;2023-05-20T14:31:25;24.10;97.70
48488;DHT22;34289;48.572;13.378;2023-05-20T14:33:51;24.00;96.80
48488;DHT22;34289;48.572;13.378;2023-05-20T14:36:16;23.80;97.80
48488;DHT22;34289;48.572;13.378;2023-05-20T14:38:42;24.00;97.60
48488;DHT22;34289;48.572;13.378;2023-05-20T14:41:07;23.90;97.80
48488;DHT22;34289;48.572;13.378;2023-05-20T14:43:33;23.70;97.40
48488;DHT22;34289;48.572;13.378;2023-05-20T14:45:59;23.40;96.40
48488;DHT22;34289;48.572;13.378;2023-05-20T14:48:24;23.40;97.00
48488;DHT22;34289;48.572;13.378;2023-05-20T14:50:50;23.40;97.30
48488;DHT22;34289;48.572;13.378;2023-05-20T14:53:16;23.40;97.40
48488;DHT22;34289;48.572;13.378;2023-05-20T14:55:42;23.50;98.20
48488;DHT22;34289;48.572;13.378;2023-05-20T14:58:07;23.50;97.50
48488;DHT22;34289;48.572;13.378;2023-05-20T15:00:33;23.50;98.30
48488;DHT22;34289;48.572;13.378;2023-05-20T15:02:58;23.40;96.60
48488;DHT22;34289;48.572;13.378;2023-05-20T15:05:24;23.40;98.10
48488;DHT22;34289;48.572;13.378;2023-05-20T15:07:50;23.30;96.70
48488;DHT22;34289;48.572;13.378;2023-05-20T15:10:15;23.40;98.10
48488;DHT22;34289;48.572;13.378;2023-05-20T15:12:41;23.40;98.00
48488;DHT22;34289;48.572;13.378;2023-05-20T15:15:08;23.40;97.80
48488;DHT22;34289;48.572;13.378;2023-05-20T15:17:34;23.50;96.30
48488;DHT22;34289;48.572;13.378;2023-05-20T15:19:59;23.40;97.70
48488;DHT22;34289;48.572;13.378;2023-05-20T15:22:25;23.30;96.80
48488;DHT22;34289;48.572;13.378;2023-05-20T15:24:51;23.20;96.10
48488;DHT22;34289;48.572;13.378;2023-05-20T15:27:16;23.20;96.70
48488;DHT22;34289;48.572;13.378;2023-05-20T15:29:42;23.20;96.50
48488;DHT22;34289;48.572;13.378;2023-05-20T15:32:08;23.30;98.20
48488;DHT22;34289;48.572;13.378;2023-05-20T15:34:34;23.40;97.70
48488;DHT22;34289;48.572;13.378;2023-05-20T15:36:59;23.30;97.40
48488;DHT22;34289;48.572;13.378;2023-05-20T15:39:25;23.40;98.00
48488;DHT22;34289;48.572;13.378;2023-05-20T15:41:51;23.50;98.20
48488;DHT22;34289;48.572;13.378;2023-05-20T15:44:17;23.50;98.30
48488;DHT22;34289;48.572;13.378;2023-05-20T15:46:43;23.50;98.30
48488;DHT22;34289;48.572;13.378;2023-05-20T15:49:10;23.50;99.50
48488;DHT22;34289;48.572;13.378;2023-05-20T15:51:36;23.50;99.10
48488;DHT22;34289;48.572;13.378;2023-05-20T15:54:01;23.50;99.50
48488;DHT22;34289;48.572;13.378;2023-05-20T15:56:28;23.40;99.90
48488;DHT22;34289;48.572;13.378;2023-05-20T15:58:53;23.40;99.90
48488;DHT22;34289;48.572;13.378;2023-05-20T16:01:19;23.30;98.80
48488;DHT22;34289;48.572;13.378;2023-05-20T16:03:46;23.20;99.90
48488;DHT22;34289;48.572;13.378;2023-05-20T16:06:12;23.20;99.40
48488;DHT22;34289;48.572;13.378;2023-05-20T16:08:38;23.20;99.10
48488;DHT22;34289;48.572;13.378;2023-05-20T16:11:05;23.30;99.90
48488;DHT22;34289;48.572;13.378;2023-05-20T16:13:31;23.20;99.90
48488;DHT22;34289;48.572;13.378;2023-05-20T16:15:58;23.10;99.80
48488;DHT22;34289;48.572;13.378;2023-05-20T16:18:25;23.10;99.50
48488;DHT22;34289;48.572;13.378;2023-05-20T16:20:53;23.00;99.90
48488;DHT22;34289;48.572;13.378;2023-05-20T16:23:18;22.90;99.70
48488;DHT22;34289;48.572;13.378;2023-05-20T16:25:44;22.60;99.90
48488;DHT22;34289;48.572;13.378;2023-05-20T16:28:10;22.60;99.90
48488;DHT22;34289;48.572;13.378;2023-05-20T16:30:35;22.60;99.90
48488;DHT22;34289;48.572;13.378;2023-05-20T16:33:01;22.60;99.90
48488;DHT22;34289;48.572;13.378;2023-05-20T16:35:26;22.50;99.90
48488;DHT22;34289;48.572;13.378;2023-05-20T16:37:52;22.50;99.90
48488;DHT22;34289;48.572;13.378;2023-05-20T16:40:18;22.40;99.90
48488;DHT22;34289;48.572;13.378;2023-05-20T16:42:43;22.30;99.90
48488;DHT22;34289;48.572;13.378;2023-05-20T16:45:10;22.30;99.90
48488;DHT22;34289;48.572;13.378;2023-05-20T16:47:36;22.20;99.90
48488;DHT22;34289;48.572;13.378;2023-05-20T16:50:02;22.30;99.90
48488;DHT22;34289;48.572;13.378;2023-05-20T16:52:28;22.30;99.90
48488;DHT22;34289;48.572;13.378;2023-05-20T16:54:53;22.20;99.90
48488;DHT22;34289;48.572;13.378;2023-05-20T16:57:21;22.20;99.90
48488;DHT22;34289;48.572;13.378;2023-05-20T16:59:47;22.10;99.90
48488;DHT22;34289;48.572;13.378;2023-05-20T17:02:12;22.10;99.90
48488;DHT22;34289;48.572;13.378;2023-05-20T17:04:38;22.00;99.90
48488;DHT22;34289;48.572;13.378;2023-05-20T17:07:04;22.00;99.90
48488;DHT22;34289;48.572;13.378;2023-05-20T17:09:34;21.90;99.90
48488;DHT22;34289;48.572;13.378;2023-05-20T17:12:01;21.80;99.90
48488;DHT22;34289;48.572;13.378;2023-05-20T17:14:27;21.80;99.90
48488;DHT22;34289;48.572;13.378;2023-05-20T17:16:52;21.70;99.90
48488;DHT22;34289;48.572;13.378;2023-05-20T17:19:18;21.60;99.90
48488;DHT22;34289;48.572;13.378;2023-05-20T17:21:43;21.70;99.90
48488;DHT22;34289;48.572;13.378;2023-05-20T17:24:10;21.60;99.90
48488;DHT22;34289;48.572;13.378;2023-05-20T17:26:36;21.60;99.90
48488;DHT22;34289;48.572;13.378;2023-05-20T17:29:01;21.50;99.90
48488;DHT22;34289;48.572;13.378;2023-05-20T17:31:27;21.50;99.90
48488;DHT22;34289;48.572;13.378;2023-05-20T17:33:53;21.40;99.90
48488;DHT22;34289;48.572;13.378;2023-05-20T17:36:18;21.50;99.90
48488;DHT22;34289;48.572;13.378;2023-05-20T17:38:47;21.40;99.90
48488;DHT22;34289;48.572;13.378;2023-05-20T17:41:13;21.40;99.90
48488;DHT22;34289;48.572;13.378;2023-05-20T17:43:38;21.30;99.90
48488;DHT22;34289;48.572;13.378;2023-05-20T17:46:04;21.30;99.90
48488;DHT22;34289;48.572;13.378;2023-05-20T17:48:29;21.30;99.90
48488;DHT22;34289;48.572;13.378;2023-05-20T17:50:57;21.30;99.90
48488;DHT22;34289;48.572;13.378;2023-05-20T17:53:23;21.20;99.90
48488;DHT22;34289;48.572;13.378;2023-05-20T17:55:48;21.20;99.90
48488;DHT22;34289;48.572;13.378;2023-05-20T17:58:14;21.20;99.90
48488;DHT22;34289;48.572;13.378;2023-05-20T18:00:40;21.20;99.90
48488;DHT22;34289;48.572;13.378;2023-05-20T18:03:08;21.10;99.90
48488;DHT22;34289;48.572;13.378;2023-05-20T18:05:34;21.10;99.90
48488;DHT22;34289;48.572;13.378;2023-05-20T18:08:00;21.10;99.90
48488;DHT22;34289;48.572;13.378;2023-05-20T18:10:26;21.00;99.90
48488;DHT22;34289;48.572;13.378;2023-05-20T18:12:52;21.00;99.90
48488;DHT22;34289;48.572;13.378;2023-05-20T18:15:17;21.00;99.90
48488;DHT22;34289;48.572;13.378;2023-05-20T18:17:43;20.90;99.90
48488;DHT22;34289;48.572;13.378;2023-05-20T18:20:11;20.80;99.90
48488;DHT22;34289;48.572;13.378;2023-05-20T18:22:37;20.80;99.90
48488;DHT22;34289;48.572;13.378;2023-05-20T18:25:07;20.70;99.90
48488;DHT22;34289;48.572;13.378;2023-05-20T18:27:33;20.60;99.90
48488;DHT22;34289;48.572;13.378;2023-05-20T18:29:58;20.60;99.90
48488;DHT22;34289;48.572;13.378;2023-05-20T18:32:24;20.50;99.90
48488;DHT22;34289;48.572;13.378;2023-05-20T18:34:52;20.40;99.90
48488;DHT22;34289;48.572;13.378;2023-05-20T18:37:18;20.40;99.90
48488;DHT22;34289;48.572;13.378;2023-05-20T18:39:44;20.30;99.90
48488;DHT22;34289;48.572;13.378;2023-05-20T18:42:09;20.20;99.90
48488;DHT22;34289;48.572;13.378;2023-05-20T18:44:35;20.20;99.90
48488;DHT22;34289;48.572;13.378;2023-05-20T18:47:01;20.20;99.90
48488;DHT22;34289;48.572;13.378;2023-05-20T18:49:26;20.10;99.90
48488;DHT22;34289;48.572;13.378;2023-05-20T18:51:52;20.10;99.90
48488;DHT22;34289;48.572;13.378;2023-05-20T18:54:18;20.10;99.90
48488;DHT22;34289;48.572;13.378;2023-05-20T18:56:43;20.10;99.90
48488;DHT22;34289;48.572;13.378;2023-05-20T18:59:09;20.00;99.90